Terminal Aerodrome Forecast
Issued by NWS

Home | Current Version | Previous Version | Text Only | Print | Product List | Glossary On
Versions: 1 2 3 4 5 6 7 8 9 10 11 12 13 14 15 16
916
FTUS41 KBTV 181339 AAA
TAFMPV
TAF AMD
KMPV 181339Z 1814/1912 18006KT 5SM -SN OVC030
      TEMPO 1814/1818 1SM -SN BR OVC015
     FM182200 16006KT P6SM VCSH OVC025
     FM190000 17005KT P6SM OVC025=

USA.gov is the U.S. government's official web portal to all federal, state and local government web resources and services.